createdAt,value
2017-12-11T00:00:03.249Z,1.7
2017-12-11T00:02:03.524Z,1.63
2017-12-11T00:03:18.197Z,1.58
2017-12-11T00:04:03.565Z,1.55
2017-12-11T00:05:03.565Z,1.63
2017-12-11T00:06:03.592Z,1.65
2017-12-11T00:07:03.595Z,1.66
2017-12-11T00:08:03.594Z,1.7
2017-12-11T00:09:03.622Z,1.63
2017-12-11T00:10:03.640Z,1.62
2017-12-11T00:11:03.389Z,1.65
2017-12-11T00:12:03.662Z,1.6
2017-12-11T00:13:03.413Z,1.6
2017-12-11T00:14:18.397Z,1.55
2017-12-11T00:15:03.706Z,1.63
2017-12-11T00:16:03.710Z,1.63
2017-12-11T00:17:18.385Z,1.6
2017-12-11T00:18:03.739Z,1.59
2017-12-11T00:19:03.724Z,1.68
2017-12-11T00:20:03.745Z,1.68
2017-12-11T00:21:03.781Z,1.7
2017-12-11T00:22:03.813Z,1.68
2017-12-11T00:23:03.800Z,1.76
2017-12-11T00:24:03.812Z,1.73
2017-12-11T00:25:03.851Z,1.84
2017-12-11T00:26:03.861Z,1.83
2017-12-11T00:27:03.857Z,1.84
2017-12-11T00:28:03.852Z,1.84
2017-12-11T00:29:03.855Z,1.83
2017-12-11T00:30:18.560Z,1.86
2017-12-11T00:31:18.557Z,1.84
2017-12-11T00:32:03.649Z,1.8
2017-12-11T00:33:03.933Z,1.76
2017-12-11T00:34:03.931Z,1.66
2017-12-11T00:35:03.965Z,1.63
2017-12-11T00:36:03.952Z,1.6
2017-12-11T00:37:03.964Z,1.69
2017-12-11T00:38:04.031Z,1.6
2017-12-11T00:39:04.034Z,1.72
2017-12-11T00:40:04.057Z,1.55
2017-12-11T00:41:04.055Z,1.54
2017-12-11T00:42:03.542Z,1.59
2017-12-11T00:43:04.113Z,1.54
2017-12-11T00:44:04.072Z,1.65
2017-12-11T00:45:18.752Z,1.54
2017-12-11T00:47:04.119Z,1.6
2017-12-11T00:48:04.137Z,1.54
2017-12-11T00:49:04.159Z,1.42
2017-12-11T00:50:04.292Z,1.4
2017-12-11T00:51:04.213Z,1.4
2017-12-11T00:52:04.184Z,1.47
2017-12-11T00:53:04.191Z,1.34
2017-12-11T00:54:04.220Z,1.3
2017-12-11T00:55:04.233Z,1.44
2017-12-11T00:56:04.251Z,1.36
2017-12-11T00:57:04.070Z,1.32
2017-12-11T00:58:04.250Z,1.34
2017-12-11T00:59:04.289Z,1.37
2017-12-11T01:00:04.297Z,1.44
2017-12-11T01:01:18.706Z,1.45
2017-12-11T01:02:04.064Z,1.45
2017-12-11T01:03:04.060Z,1.42
2017-12-11T01:04:03.840Z,1.47
2017-12-11T01:05:04.099Z,1.36
2017-12-11T01:06:04.141Z,1.4
2017-12-11T01:07:19.046Z,1.41
2017-12-11T01:08:04.403Z,1.44
2017-12-11T01:09:04.443Z,1.44
2017-12-11T01:10:04.450Z,1.36
2017-12-11T01:11:04.457Z,1.44
2017-12-11T01:12:04.458Z,1.36
2017-12-11T01:13:04.330Z,1.4
2017-12-11T01:14:04.507Z,1.4
2017-12-11T01:15:04.481Z,1.41
2017-12-11T01:16:04.255Z,1.42
2017-12-11T01:17:19.177Z,1.48
2017-12-11T01:18:19.187Z,1.42
2017-12-11T01:19:04.550Z,1.45
2017-12-11T01:20:04.288Z,1.58
2017-12-11T01:21:04.589Z,1.58
2017-12-11T01:22:04.581Z,1.59
2017-12-11T01:23:04.605Z,1.79
2017-12-11T01:25:04.502Z,1.65
2017-12-11T01:26:04.638Z,1.65
2017-12-11T01:27:04.675Z,1.69
2017-12-11T01:28:04.662Z,1.8
2017-12-11T01:29:04.693Z,1.83
2017-12-11T01:30:04.696Z,1.91
2017-12-11T01:31:04.730Z,2.02
2017-12-11T01:32:19.395Z,2.1
2017-12-11T01:34:04.517Z,2.14
2017-12-11T01:35:04.748Z,2.1
2017-12-11T01:36:04.776Z,2.09
2017-12-11T01:37:04.789Z,2.18
2017-12-11T01:38:04.799Z,2.34
2017-12-11T01:39:04.844Z,2.38
2017-12-11T01:40:04.838Z,2.34
2017-12-11T01:41:04.844Z,2.3
2017-12-11T01:42:04.859Z,2.42
2017-12-11T01:43:04.871Z,2.31
2017-12-11T01:44:04.883Z,2.54
2017-12-11T01:45:04.939Z,2.69
2017-12-11T01:46:04.887Z,2.71
2017-12-11T01:47:04.952Z,2.79
2017-12-11T01:48:04.931Z,2.75
2017-12-11T01:49:19.608Z,2.78
2017-12-11T01:50:04.952Z,2.81
2017-12-11T01:51:04.979Z,2.87
2017-12-11T01:52:04.997Z,2.78
2017-12-11T01:53:05.020Z,2.82
2017-12-11T01:54:05.006Z,2.93
2017-12-11T01:56:05.051Z,2.92
2017-12-11T01:57:04.821Z,2.99
2017-12-11T01:58:05.050Z,2.96
2017-12-11T01:59:05.108Z,2.93
2017-12-11T02:00:05.124Z,3.08
2017-12-11T02:01:05.099Z,3.05
2017-12-11T02:02:05.189Z,3.03
2017-12-11T02:03:05.141Z,3.08
2017-12-11T02:04:05.173Z,3.17
2017-12-11T02:05:19.824Z,3.29
2017-12-11T02:06:05.199Z,3.21
2017-12-11T02:07:05.175Z,3.26
2017-12-11T02:08:19.867Z,3.32
2017-12-11T02:09:05.255Z,3.32
2017-12-11T02:10:05.230Z,3.39
2017-12-11T02:13:19.931Z,3.31
2017-12-11T02:14:05.434Z,3.5
2017-12-11T02:15:04.798Z,3.58
2017-12-11T02:16:05.324Z,3.58
2017-12-11T02:17:05.360Z,3.55
2017-12-11T02:18:20.024Z,3.61
2017-12-11T02:19:05.392Z,3.55
2017-12-11T02:21:05.417Z,3.61
2017-12-11T02:22:05.431Z,3.6
2017-12-11T02:23:05.174Z,3.75
2017-12-11T02:25:20.104Z,3.78
2017-12-11T02:26:05.224Z,3.7
2017-12-11T02:28:05.513Z,3.6
2017-12-11T02:29:05.521Z,3.65
2017-12-11T02:30:05.551Z,3.73
2017-12-11T02:31:05.275Z,3.84
2017-12-11T02:32:05.581Z,3.88
2017-12-11T02:33:05.587Z,4.11
2017-12-11T02:34:05.584Z,4.02
2017-12-11T02:35:05.325Z,4.09
2017-12-11T02:36:05.611Z,4.04
2017-12-11T02:37:05.634Z,4.04
2017-12-11T02:38:05.629Z,4.04
2017-12-11T02:39:05.645Z,4.18
2017-12-11T02:40:05.693Z,4.06
2017-12-11T02:41:05.675Z,4.15
2017-12-11T02:43:05.733Z,4.2
2017-12-11T02:44:05.453Z,4.23
2017-12-11T02:45:05.755Z,4.24
2017-12-11T02:46:05.756Z,4.44
2017-12-11T02:47:05.789Z,4.2
2017-12-11T02:48:05.776Z,4.22
2017-12-11T02:49:05.810Z,4.32
2017-12-11T02:50:05.820Z,4.32
2017-12-11T02:51:05.834Z,4.23
2017-12-11T02:52:20.510Z,4.23
2017-12-11T02:53:05.855Z,4.15
2017-12-11T02:54:05.852Z,4.26
2017-12-11T02:55:05.913Z,4.2
2017-12-11T02:57:05.923Z,4.24
2017-12-11T02:58:05.917Z,4.4
2017-12-11T02:59:05.668Z,4.36
2017-12-11T03:00:05.698Z,4.47
2017-12-11T03:01:05.974Z,4.51
2017-12-11T03:02:05.986Z,4.37
2017-12-11T03:03:06.007Z,4.51
2017-12-11T03:04:20.698Z,4.66
2017-12-11T03:05:05.510Z,4.58
2017-12-11T03:06:06.045Z,4.52
2017-12-11T03:07:06.031Z,4.54
2017-12-11T03:08:20.748Z,4.48
2017-12-11T03:09:06.095Z,4.54
2017-12-11T03:10:06.079Z,4.59
2017-12-11T03:12:05.877Z,4.58
2017-12-11T03:13:06.163Z,4.66
2017-12-11T03:15:06.183Z,4.44
2017-12-11T03:16:06.281Z,4.48
2017-12-11T03:17:06.204Z,4.63
2017-12-11T03:18:06.247Z,4.58
2017-12-11T03:19:06.256Z,4.66
2017-12-11T03:20:06.231Z,4.63
2017-12-11T03:21:06.275Z,4.51
2017-12-11T03:22:20.950Z,4.45
2017-12-11T03:23:20.968Z,4.52
2017-12-11T03:24:20.975Z,4.48
2017-12-11T03:25:06.322Z,4.45
2017-12-11T03:26:06.359Z,4.44
2017-12-11T03:27:20.759Z,4.47
2017-12-11T03:28:06.344Z,4.47
2017-12-11T03:29:06.374Z,4.45
2017-12-11T03:31:06.446Z,4.44
2017-12-11T03:32:06.443Z,4.34
2017-12-11T03:33:21.092Z,4.51
2017-12-11T03:34:06.450Z,4.41
2017-12-11T03:35:05.956Z,4.44
2017-12-11T03:36:06.226Z,4.44
2017-12-11T03:37:06.493Z,4.5
2017-12-11T03:38:06.259Z,4.54
2017-12-11T03:39:06.531Z,4.44
2017-12-11T03:40:21.220Z,4.5
2017-12-11T03:41:06.555Z,4.48
2017-12-11T03:42:06.590Z,4.52
2017-12-11T03:43:06.577Z,4.48
2017-12-11T03:44:06.598Z,4.59
2017-12-11T03:45:06.644Z,4.5
2017-12-11T03:46:06.654Z,4.59
2017-12-11T03:47:06.656Z,4.67
2017-12-11T03:48:06.636Z,4.51
2017-12-11T03:49:06.421Z,4.52
2017-12-11T03:50:06.714Z,4.66
2017-12-11T03:51:06.691Z,4.67
2017-12-11T03:52:06.483Z,4.67
2017-12-11T03:53:21.394Z,4.7
2017-12-11T03:54:06.761Z,4.66
2017-12-11T03:55:21.438Z,4.59
2017-12-11T03:56:06.775Z,4.66
2017-12-11T03:57:06.790Z,4.66
2017-12-11T03:59:21.219Z,4.65
2017-12-11T04:00:06.847Z,4.72
2017-12-11T04:01:06.846Z,4.72
2017-12-11T04:02:06.851Z,4.69
2017-12-11T04:03:21.531Z,4.66
2017-12-11T04:04:06.901Z,4.66
2017-12-11T04:05:06.918Z,4.7
2017-12-11T04:06:06.923Z,4.67
2017-12-11T04:07:06.930Z,4.65
2017-12-11T04:08:06.975Z,4.75
2017-12-11T04:09:06.991Z,4.73
2017-12-11T04:10:07.005Z,4.67
2017-12-11T04:11:07.026Z,4.67
2017-12-11T04:12:21.672Z,4.82
2017-12-11T04:13:07.019Z,4.7
2017-12-11T04:14:07.053Z,4.8
2017-12-11T04:15:07.087Z,4.73
2017-12-11T04:16:07.053Z,4.66
2017-12-11T04:17:21.748Z,4.88
2017-12-11T04:18:06.851Z,4.7
2017-12-11T04:19:06.890Z,4.82
2017-12-11T04:20:21.791Z,4.86
2017-12-11T04:21:07.161Z,4.86
2017-12-11T04:22:06.891Z,5.02
2017-12-11T04:23:07.199Z,4.96
2017-12-11T04:24:06.928Z,4.94
2017-12-11T04:25:07.231Z,5.06
2017-12-11T04:26:07.250Z,5.04
2017-12-11T04:27:21.910Z,5.03
2017-12-11T04:28:22.009Z,5.04
2017-12-11T04:29:07.275Z,4.99
2017-12-11T04:30:07.278Z,5.04
2017-12-11T04:31:07.284Z,5.02
2017-12-11T04:33:07.334Z,5.09
2017-12-11T04:34:07.091Z,5.07
2017-12-11T04:35:07.114Z,5.1
2017-12-11T04:36:07.378Z,5.04
2017-12-11T04:37:07.395Z,5.1
2017-12-11T04:38:07.385Z,5.06
2017-12-11T04:40:07.445Z,5.17
2017-12-11T04:41:07.472Z,5.06
2017-12-11T04:42:07.477Z,5.03
2017-12-11T04:43:22.165Z,5.07
2017-12-11T04:44:07.527Z,5.1
2017-12-11T04:45:07.262Z,5.1
2017-12-11T04:46:07.514Z,5.15
2017-12-11T04:47:07.307Z,5.09
2017-12-11T04:48:07.326Z,5.1
2017-12-11T04:49:07.554Z,5.1
2017-12-11T04:50:07.337Z,5.04
2017-12-11T04:51:07.624Z,5.07
2017-12-11T04:52:07.349Z,5.09
2017-12-11T04:53:07.638Z,5.06
2017-12-11T04:54:07.655Z,5.07
2017-12-11T04:55:07.643Z,5.09
2017-12-11T04:56:07.426Z,5.06
2017-12-11T04:57:07.690Z,4.96
2017-12-11T04:58:07.716Z,4.92
2017-12-11T04:59:22.406Z,4.97
2017-12-11T05:00:07.488Z,5.02
2017-12-11T05:01:07.752Z,4.99
2017-12-11T05:02:07.748Z,4.96
2017-12-11T05:03:07.805Z,4.96
2017-12-11T05:04:07.806Z,5
2017-12-11T05:07:07.868Z,5.06
2017-12-11T05:08:07.845Z,5.03
2017-12-11T05:09:07.859Z,4.92
2017-12-11T05:10:07.891Z,5.02
2017-12-11T05:11:07.914Z,4.92
2017-12-11T05:12:07.936Z,5
2017-12-11T05:13:07.920Z,4.99
2017-12-11T05:14:07.716Z,4.94
2017-12-11T05:15:22.652Z,5
2017-12-11T05:16:08.008Z,4.91
2017-12-11T05:17:08.008Z,5
2017-12-11T05:18:22.664Z,4.99
2017-12-11T05:20:08.032Z,4.86
2017-12-11T05:21:08.043Z,4.86
2017-12-11T05:22:08.098Z,4.88
2017-12-11T05:23:08.079Z,4.86
2017-12-11T05:24:08.117Z,5.03
2017-12-11T05:25:07.861Z,4.94
2017-12-11T05:26:07.877Z,4.85
2017-12-11T05:27:08.154Z,5.03
2017-12-11T05:28:08.187Z,4.92
2017-12-11T05:29:08.182Z,4.88
2017-12-11T05:30:22.885Z,4.84
2017-12-11T05:31:08.195Z,4.88
2017-12-11T05:32:08.214Z,4.88
2017-12-11T05:33:22.904Z,4.88
2017-12-11T05:34:08.253Z,4.8
2017-12-11T05:35:08.033Z,4.85
2017-12-11T05:36:08.282Z,4.82
2017-12-11T05:37:08.302Z,4.78
2017-12-11T05:38:08.372Z,4.82
2017-12-11T05:39:08.310Z,4.84
2017-12-11T05:40:08.360Z,4.72
2017-12-11T05:41:08.348Z,4.77
2017-12-11T05:42:08.115Z,4.82
2017-12-11T05:45:08.446Z,4.86
2017-12-11T05:46:08.461Z,4.73
2017-12-11T05:47:08.480Z,4.72
2017-12-11T05:48:08.460Z,4.73
2017-12-11T05:49:08.520Z,4.78
2017-12-11T05:50:08.507Z,4.77
2017-12-11T05:51:08.281Z,4.72
2017-12-11T05:52:08.301Z,4.77
2017-12-11T05:54:08.578Z,4.65
2017-12-11T05:55:08.599Z,4.69
2017-12-11T05:56:08.597Z,4.7
2017-12-11T05:57:08.372Z,4.77
2017-12-11T05:58:08.365Z,4.7
2017-12-11T05:59:08.644Z,4.69
2017-12-11T06:00:08.139Z,4.65
2017-12-11T06:01:23.339Z,4.62
2017-12-11T06:02:23.341Z,4.58
2017-12-11T06:03:08.701Z,4.51
2017-12-11T06:04:08.715Z,4.51
2017-12-11T06:05:08.760Z,4.4
2017-12-11T06:06:08.511Z,4.47
2017-12-11T06:07:23.426Z,4.41
2017-12-11T06:08:08.786Z,4.5
2017-12-11T06:09:23.441Z,4.44
2017-12-11T06:11:08.854Z,4.51
2017-12-11T06:12:08.840Z,4.33
2017-12-11T06:13:08.828Z,4.37
2017-12-11T06:14:08.609Z,4.32
2017-12-11T06:15:08.859Z,4.2
2017-12-11T06:16:08.661Z,4.23
2017-12-11T06:17:08.916Z,4.22
2017-12-11T06:18:23.610Z,4.08
2017-12-11T06:19:08.961Z,4.08
2017-12-11T06:20:08.971Z,4.16
2017-12-11T06:21:08.978Z,4.02
2017-12-11T06:22:08.988Z,3.98
2017-12-11T06:23:09.056Z,4.06
2017-12-11T06:24:08.781Z,4.09
2017-12-11T06:25:23.701Z,3.98
2017-12-11T06:26:09.053Z,3.98
2017-12-11T06:27:23.707Z,3.98
2017-12-11T06:28:08.900Z,3.98
2017-12-11T06:29:08.828Z,4.02
2017-12-11T06:30:08.844Z,3.94
2017-12-11T06:31:09.124Z,3.98
2017-12-11T06:32:09.231Z,4
2017-12-11T06:33:09.140Z,3.98
2017-12-11T06:34:23.819Z,3.91
2017-12-11T06:35:23.862Z,3.83
2017-12-11T06:36:08.944Z,3.84
2017-12-11T06:37:09.218Z,3.84
2017-12-11T06:38:09.227Z,3.88
2017-12-11T06:39:23.912Z,3.8
2017-12-11T06:40:09.010Z,3.76
2017-12-11T06:41:09.119Z,3.84
2017-12-11T06:42:09.035Z,3.93
2017-12-11T06:43:09.048Z,3.88
2017-12-11T06:44:09.080Z,3.9
2017-12-11T06:45:09.338Z,3.93
2017-12-11T06:46:09.347Z,3.88
2017-12-11T06:47:09.361Z,3.84
2017-12-11T06:48:24.051Z,4.04
2017-12-11T06:49:09.412Z,3.96
2017-12-11T06:50:24.075Z,4
2017-12-11T06:51:24.099Z,3.93
2017-12-11T06:52:09.448Z,3.88
2017-12-11T06:53:09.482Z,3.98
2017-12-11T06:54:09.210Z,4.06
2017-12-11T06:55:09.469Z,3.94
2017-12-11T06:56:09.240Z,4
2017-12-11T06:57:09.265Z,4
2017-12-11T06:58:09.271Z,3.87
2017-12-11T06:59:09.287Z,3.96
2017-12-11T07:00:09.568Z,3.87
2017-12-11T07:01:09.575Z,3.86
2017-12-11T07:02:09.313Z,3.9
2017-12-11T07:03:09.581Z,3.88
2017-12-11T07:04:09.346Z,3.8
2017-12-11T07:05:24.033Z,3.78
2017-12-11T07:06:24.297Z,3.84
2017-12-11T07:07:09.656Z,3.79
2017-12-11T07:08:09.680Z,3.84
2017-12-11T07:09:09.708Z,3.72
2017-12-11T07:10:09.450Z,3.79
2017-12-11T07:11:24.447Z,3.72
2017-12-11T07:12:09.740Z,3.61
2017-12-11T07:13:24.165Z,3.66
2017-12-11T07:14:09.754Z,3.58
2017-12-11T07:15:09.764Z,3.6
2017-12-11T07:17:09.821Z,3.55
2017-12-11T07:18:09.839Z,3.57
2017-12-11T07:19:09.857Z,3.58
2017-12-11T07:20:09.859Z,3.66
2017-12-11T07:21:09.876Z,3.62
2017-12-11T07:23:09.924Z,3.52
2017-12-11T07:24:09.658Z,3.52
2017-12-11T07:26:09.688Z,3.58
2017-12-11T07:27:24.610Z,3.52
2017-12-11T07:28:09.987Z,3.43
2017-12-11T07:29:10.002Z,3.45
2017-12-11T07:30:09.988Z,3.43
2017-12-11T07:31:10.050Z,3.43
2017-12-11T07:32:09.781Z,3.39
2017-12-11T07:33:09.778Z,3.43
2017-12-11T07:34:10.076Z,3.36
2017-12-11T07:35:10.068Z,3.33
2017-12-11T07:36:10.103Z,3.32
2017-12-11T07:37:24.779Z,3.24
2017-12-11T07:38:10.097Z,3.23
2017-12-11T07:39:10.116Z,3.28
2017-12-11T07:40:10.142Z,3.33
2017-12-11T07:41:10.163Z,3.23
2017-12-11T07:42:10.194Z,3.2
2017-12-11T07:43:10.229Z,3.17
2017-12-11T07:44:10.203Z,3.15
2017-12-11T07:45:24.887Z,3.15
2017-12-11T07:46:09.983Z,3.23
2017-12-11T07:47:10.243Z,3.18
2017-12-11T07:48:10.276Z,3.15
2017-12-11T07:49:10.255Z,3.26
2017-12-11T07:50:10.285Z,3.2
2017-12-11T07:51:10.291Z,3.21
2017-12-11T07:52:10.315Z,3.14
2017-12-11T07:53:24.990Z,3.2
2017-12-11T07:54:25.013Z,3.11
2017-12-11T07:55:10.356Z,3.17
2017-12-11T07:56:10.403Z,3.2
2017-12-11T07:57:10.374Z,3.2
2017-12-11T07:58:25.071Z,3.18
2017-12-11T07:59:10.160Z,3.18
2017-12-11T08:00:10.434Z,3.23
2017-12-11T08:01:10.490Z,3.2
2017-12-11T08:02:10.493Z,3.32
2017-12-11T08:03:10.488Z,3.33
2017-12-11T08:05:10.524Z,3.43
2017-12-11T08:06:10.657Z,3.36
2017-12-11T08:07:10.276Z,3.43
2017-12-11T08:08:10.551Z,3.48
2017-12-11T08:09:25.252Z,3.48
2017-12-11T08:10:10.057Z,3.54
2017-12-11T08:11:10.601Z,3.57
2017-12-11T08:12:10.638Z,3.51
2017-12-11T08:14:10.415Z,3.5
2017-12-11T08:15:10.641Z,3.43
2017-12-11T08:16:10.458Z,3.47
2017-12-11T08:17:25.370Z,3.6
2017-12-11T08:18:10.731Z,3.61
2017-12-11T08:19:10.708Z,3.5
2017-12-11T08:22:10.768Z,3.58
2017-12-11T08:23:10.841Z,3.55
2017-12-11T08:24:10.805Z,3.48
2017-12-11T08:25:25.472Z,3.51
2017-12-11T08:26:10.807Z,3.57
2017-12-11T08:27:10.821Z,3.52
2017-12-11T08:28:10.858Z,3.51
2017-12-11T08:29:10.878Z,3.58
2017-12-11T08:31:10.904Z,3.55
2017-12-11T08:32:10.914Z,3.55
2017-12-11T08:33:10.956Z,3.57
2017-12-11T08:34:10.968Z,3.62
2017-12-11T08:35:10.979Z,3.66
2017-12-11T08:36:10.985Z,3.62
2017-12-11T08:37:10.982Z,3.65
2017-12-11T08:38:10.990Z,3.6
2017-12-11T08:39:11.040Z,3.62
2017-12-11T08:40:25.700Z,3.62
2017-12-11T08:41:11.078Z,3.57
2017-12-11T08:42:10.826Z,3.6
2017-12-11T08:43:11.070Z,3.57
2017-12-11T08:44:11.114Z,3.68
2017-12-11T08:45:10.843Z,3.75
2017-12-11T08:46:11.159Z,3.69
2017-12-11T08:47:11.170Z,3.69
2017-12-11T08:48:11.144Z,3.84
2017-12-11T08:49:11.180Z,3.8
2017-12-11T08:50:25.873Z,3.91
2017-12-11T08:51:11.218Z,3.9
2017-12-11T08:52:11.230Z,3.93
2017-12-11T08:53:11.229Z,3.91
2017-12-11T08:54:11.257Z,3.87
2017-12-11T08:55:11.284Z,3.98
2017-12-11T08:56:11.037Z,3.93
2017-12-11T08:57:11.288Z,3.96
2017-12-11T08:58:25.723Z,3.91
2017-12-11T08:59:11.331Z,3.91
2017-12-11T09:00:11.359Z,3.94
2017-12-11T09:01:11.119Z,3.98
2017-12-11T09:02:11.379Z,3.96
2017-12-11T09:03:11.433Z,4
2017-12-11T09:04:11.406Z,3.98
2017-12-11T09:05:11.440Z,4
2017-12-11T09:06:11.431Z,3.98
2017-12-11T09:07:11.459Z,4.02
2017-12-11T09:08:11.482Z,3.96
2017-12-11T09:09:11.510Z,4
2017-12-11T09:11:11.519Z,4.02
2017-12-11T09:12:26.211Z,4
2017-12-11T09:13:11.556Z,4.06
2017-12-11T09:14:11.560Z,3.98
2017-12-11T09:15:11.561Z,4.02
2017-12-11T09:16:11.582Z,4.05
2017-12-11T09:17:11.614Z,4.04
2017-12-11T09:18:11.649Z,4.09
2017-12-11T09:19:11.650Z,4.06
2017-12-11T09:20:26.316Z,4.04
2017-12-11T09:21:11.669Z,4.16
2017-12-11T09:22:11.682Z,4.06
2017-12-11T09:23:26.382Z,4.16
2017-12-11T09:24:11.481Z,4.14
2017-12-11T09:25:11.751Z,4.16
2017-12-11T09:26:11.784Z,4.16
2017-12-11T09:27:11.755Z,4.14
2017-12-11T09:28:26.474Z,4.08
2017-12-11T09:29:26.464Z,4.15
2017-12-11T09:30:11.553Z,4.09
2017-12-11T09:31:11.846Z,4.15
2017-12-11T09:32:11.851Z,4.18
2017-12-11T09:33:11.880Z,4.18
2017-12-11T09:35:11.901Z,4.27
2017-12-11T09:36:26.589Z,4.29
2017-12-11T09:37:11.952Z,4.37
2017-12-11T09:38:11.969Z,4.34
2017-12-11T09:39:11.967Z,4.32
2017-12-11T09:40:11.986Z,4.4
2017-12-11T09:41:11.989Z,4.36
2017-12-11T09:42:11.748Z,4.37
2017-12-11T09:43:12.035Z,4.51
2017-12-11T09:44:26.705Z,4.33
2017-12-11T09:45:12.067Z,4.36
2017-12-11T09:46:12.073Z,4.32
2017-12-11T09:47:12.104Z,4.36
2017-12-11T09:48:12.101Z,4.34
2017-12-11T09:49:26.530Z,4.36
2017-12-11T09:50:12.110Z,4.36
2017-12-11T09:51:12.179Z,4.48
2017-12-11T09:52:12.191Z,4.47
2017-12-11T09:53:11.931Z,4.42
2017-12-11T09:54:12.188Z,4.42
2017-12-11T09:55:26.873Z,4.55
2017-12-11T09:56:12.235Z,4.51
2017-12-11T09:57:12.272Z,4.47
2017-12-11T09:58:12.268Z,4.44
2017-12-11T09:59:12.283Z,4.44
2017-12-11T10:00:26.962Z,4.5
2017-12-11T10:01:12.311Z,4.36
2017-12-11T10:02:12.309Z,4.34
2017-12-11T10:03:12.334Z,4.34
2017-12-11T10:04:12.107Z,4.34
2017-12-11T10:05:12.373Z,4.4
2017-12-11T10:06:12.385Z,4.37
2017-12-11T10:07:12.391Z,4.37
2017-12-11T10:08:12.166Z,4.36
2017-12-11T10:09:12.460Z,4.34
2017-12-11T10:10:12.472Z,4.45
2017-12-11T10:11:27.128Z,4.47
2017-12-11T10:12:12.459Z,4.44
2017-12-11T10:13:12.473Z,4.42
2017-12-11T10:14:12.257Z,4.4
2017-12-11T10:15:27.203Z,4.45
2017-12-11T10:16:12.520Z,4.5
2017-12-11T10:17:12.544Z,4.54
2017-12-11T10:18:12.601Z,4.51
2017-12-11T10:19:12.076Z,4.59
2017-12-11T10:20:27.286Z,4.69
2017-12-11T10:21:12.598Z,4.72
2017-12-11T10:22:12.660Z,4.69
2017-12-11T10:23:12.676Z,4.66
2017-12-11T10:24:27.073Z,4.73
2017-12-11T10:25:12.686Z,4.75
2017-12-11T10:26:12.699Z,4.65
2017-12-11T10:27:12.705Z,4.72
2017-12-11T10:29:12.749Z,4.65
2017-12-11T10:31:12.802Z,4.62
2017-12-11T10:32:12.811Z,4.59
2017-12-11T10:33:12.799Z,4.62
2017-12-11T10:34:12.836Z,4.55
2017-12-11T10:35:12.871Z,4.54
2017-12-11T10:36:12.884Z,4.55
2017-12-11T10:37:12.639Z,4.62
2017-12-11T10:38:12.879Z,4.69
2017-12-11T10:39:12.913Z,4.72
2017-12-11T10:40:12.924Z,4.69
2017-12-11T10:41:12.963Z,4.67
2017-12-11T10:43:12.978Z,4.55
2017-12-11T10:44:12.991Z,4.59
2017-12-11T10:45:13.018Z,4.58
2017-12-11T10:46:13.011Z,4.59
2017-12-11T10:47:27.720Z,4.55
2017-12-11T10:48:13.049Z,4.58
2017-12-11T10:49:13.082Z,4.48
2017-12-11T10:50:13.072Z,4.41
2017-12-11T10:51:13.118Z,4.47
2017-12-11T10:52:27.796Z,4.44
2017-12-11T10:53:12.882Z,4.33
2017-12-11T10:55:13.183Z,4.33
2017-12-11T10:56:13.182Z,4.36
2017-12-11T10:57:13.185Z,4.36
2017-12-11T10:59:13.209Z,4.36
2017-12-11T11:00:13.244Z,4.33
2017-12-11T11:01:12.999Z,4.32
2017-12-11T11:02:13.289Z,4.37
2017-12-11T11:03:27.958Z,4.34
2017-12-11T11:04:13.303Z,4.44
2017-12-11T11:05:13.321Z,4.48
2017-12-11T11:06:13.337Z,4.33
2017-12-11T11:07:28.013Z,4.36
2017-12-11T11:08:13.363Z,4.33
2017-12-11T11:09:13.413Z,4.32
2017-12-11T11:10:13.402Z,4.29
2017-12-11T11:11:13.409Z,4.33
2017-12-11T11:12:13.190Z,4.36
2017-12-11T11:13:13.456Z,4.45
2017-12-11T11:14:13.490Z,4.5
2017-12-11T11:15:13.207Z,4.4
2017-12-11T11:16:13.232Z,4.44
2017-12-11T11:17:13.498Z,4.44
2017-12-11T11:18:13.530Z,4.36
2017-12-11T11:20:13.302Z,4.34
2017-12-11T11:21:13.571Z,4.34
2017-12-11T11:22:13.313Z,4.36
2017-12-11T11:23:28.280Z,4.33
2017-12-11T11:24:13.626Z,4.37
2017-12-11T11:25:13.394Z,4.3
2017-12-11T11:26:13.664Z,4.36
2017-12-11T11:27:28.338Z,4.47
2017-12-11T11:28:13.681Z,4.51
2017-12-11T11:29:13.727Z,4.51
2017-12-11T11:30:13.740Z,4.44
2017-12-11T11:32:13.508Z,4.47
2017-12-11T11:33:13.768Z,4.47
2017-12-11T11:34:13.803Z,4.4
2017-12-11T11:35:28.476Z,4.44
2017-12-11T11:36:13.818Z,4.45
2017-12-11T11:37:13.855Z,4.42
2017-12-11T11:38:13.853Z,4.48
2017-12-11T11:39:13.869Z,4.44
2017-12-11T11:40:28.537Z,4.45
2017-12-11T11:41:13.866Z,4.42
2017-12-11T11:42:13.930Z,4.45
2017-12-11T11:44:13.935Z,4.34
2017-12-11T11:45:13.975Z,4.33
2017-12-11T11:46:13.714Z,4.34
2017-12-11T11:47:13.978Z,4.33
2017-12-11T11:48:14.001Z,4.4
2017-12-11T11:49:13.997Z,4.3
2017-12-11T11:50:28.718Z,4.3
2017-12-11T11:51:14.041Z,4.3
2017-12-11T11:52:14.075Z,4.34
2017-12-11T11:53:14.083Z,4.32
2017-12-11T11:54:14.113Z,4.36
2017-12-11T11:55:14.092Z,4.32
2017-12-11T11:56:28.782Z,4.33
2017-12-11T11:57:13.882Z,4.3
2017-12-11T11:58:28.564Z,4.2
2017-12-11T11:59:14.172Z,4.3
2017-12-11T12:00:14.189Z,4.23
2017-12-11T12:01:13.957Z,4.23
2017-12-11T12:03:14.210Z,4.32
2017-12-11T12:04:14.281Z,4.32
2017-12-11T12:05:14.275Z,4.36
2017-12-11T12:06:14.266Z,4.34
2017-12-11T12:07:14.314Z,4.27
2017-12-11T12:08:14.330Z,4.26
2017-12-11T12:09:14.346Z,4.23
2017-12-11T12:10:14.326Z,4.22
2017-12-11T12:12:14.379Z,4.27
2017-12-11T12:13:14.373Z,4.24
2017-12-11T12:15:14.436Z,4.33
2017-12-11T12:16:14.441Z,4.29
2017-12-11T12:17:14.455Z,4.24
2017-12-11T12:18:14.208Z,4.32
2017-12-11T12:19:14.252Z,4.32
2017-12-11T12:20:14.506Z,4.4
2017-12-11T12:21:14.489Z,4.29
2017-12-11T12:23:14.531Z,4.33
2017-12-11T12:24:14.574Z,4.37
2017-12-11T12:25:14.585Z,4.34
2017-12-11T12:26:14.616Z,4.33
2017-12-11T12:27:14.594Z,4.33
2017-12-11T12:28:14.614Z,4.44
2017-12-11T12:29:14.646Z,4.33
2017-12-11T12:30:14.655Z,4.36
2017-12-11T12:31:14.668Z,4.47
2017-12-11T12:32:14.712Z,4.33
2017-12-11T12:33:14.725Z,4.47
2017-12-11T12:34:14.703Z,4.36
2017-12-11T12:35:14.737Z,4.4
2017-12-11T12:36:14.752Z,4.33
2017-12-11T12:37:14.747Z,4.3
2017-12-11T12:38:29.440Z,4.34
2017-12-11T12:40:14.795Z,4.34
2017-12-11T12:41:14.852Z,4.4
2017-12-11T12:42:14.821Z,4.32
2017-12-11T12:43:14.836Z,4.34
2017-12-11T12:44:14.877Z,4.4
2017-12-11T12:45:14.911Z,4.36
2017-12-11T12:46:14.886Z,4.34
2017-12-11T12:47:14.913Z,4.26
2017-12-11T12:48:14.916Z,4.34
2017-12-11T12:50:14.966Z,4.32
2017-12-11T12:52:14.755Z,4.4
2017-12-11T12:53:14.767Z,4.33
2017-12-11T12:54:29.704Z,4.33
2017-12-11T12:55:15.017Z,4.41
2017-12-11T12:56:15.066Z,4.36
2017-12-11T12:57:15.065Z,4.36
2017-12-11T12:59:15.111Z,4.4
2017-12-11T13:00:15.119Z,4.3
2017-12-11T13:01:15.158Z,4.26
2017-12-11T13:02:15.179Z,4.27
2017-12-11T13:03:14.924Z,4.4
2017-12-11T13:05:15.218Z,4.37
2017-12-11T13:06:14.973Z,4.24
2017-12-11T13:07:15.214Z,4.23
2017-12-11T13:08:15.007Z,4.24
2017-12-11T13:09:15.003Z,4.18
2017-12-11T13:10:29.951Z,4.18
2017-12-11T13:11:15.086Z,4.27
2017-12-11T13:12:15.293Z,4.29
2017-12-11T13:13:15.308Z,4.23
2017-12-11T13:14:15.348Z,4.18
2017-12-11T13:15:15.374Z,4.11
2017-12-11T13:16:15.384Z,4.09
2017-12-11T13:17:15.386Z,4.18
2017-12-11T13:18:15.146Z,4.23
2017-12-11T13:19:15.434Z,4.06
2017-12-11T13:20:15.418Z,4.14
2017-12-11T13:21:15.212Z,4.2
2017-12-11T13:22:29.883Z,4.2
2017-12-11T13:24:15.261Z,4.2
2017-12-11T13:25:30.166Z,4.22
2017-12-11T13:26:15.529Z,4.26
2017-12-11T13:27:15.539Z,4.24
2017-12-11T13:28:15.569Z,4.16
2017-12-11T13:29:15.315Z,4.12
2017-12-11T13:30:15.631Z,4.06
2017-12-11T13:31:15.603Z,4.05
2017-12-11T13:32:15.629Z,4.04
2017-12-11T13:33:15.381Z,4.09
2017-12-11T13:34:15.652Z,4.15
2017-12-11T13:35:15.668Z,4.08
2017-12-11T13:36:30.351Z,4.15
2017-12-11T13:37:15.726Z,4.14
2017-12-11T13:38:15.704Z,4.05
2017-12-11T13:39:30.377Z,4.09
2017-12-11T13:41:15.759Z,4.05
2017-12-11T13:42:15.778Z,4.06
2017-12-11T13:43:15.790Z,3.97
2017-12-11T13:44:30.214Z,4.02
2017-12-11T13:45:15.809Z,3.96
2017-12-11T13:46:15.590Z,4
2017-12-11T13:48:15.862Z,4.02
2017-12-11T13:49:15.899Z,3.98
2017-12-11T13:50:15.876Z,4.04
2017-12-11T13:51:15.906Z,4.04
2017-12-11T13:52:15.683Z,3.88
2017-12-11T13:53:15.936Z,3.91
2017-12-11T13:54:15.970Z,3.93
2017-12-11T13:55:15.968Z,3.91
2017-12-11T13:56:15.971Z,3.97
2017-12-11T13:57:30.673Z,4.02
2017-12-11T13:58:16.000Z,3.88
2017-12-11T13:59:16.026Z,3.86
2017-12-11T14:00:15.806Z,3.88
2017-12-11T14:01:16.053Z,3.87
2017-12-11T14:02:16.072Z,3.83
2017-12-11T14:03:15.835Z,3.9
2017-12-11T14:04:15.847Z,3.91
2017-12-11T14:05:16.139Z,3.9
2017-12-11T14:06:15.889Z,3.91
2017-12-11T14:07:16.162Z,4.02
2017-12-11T14:09:16.155Z,3.87
2017-12-11T14:10:16.207Z,3.87
2017-12-11T14:11:15.960Z,3.84
2017-12-11T14:12:16.246Z,3.79
2017-12-11T14:13:30.920Z,3.8
2017-12-11T14:14:16.272Z,3.73
2017-12-11T14:15:16.300Z,3.76
2017-12-11T14:16:16.285Z,3.86
2017-12-11T14:17:16.315Z,3.86
2017-12-11T14:18:16.320Z,3.86
2017-12-11T14:19:16.317Z,3.8